sensor_id;sensor_type;location;lat;lon;timestamp;temperature;humidity
19813;DHT22;10066;48.108;11.448;2023-07-09T00:01:13;18.50;99.90
19813;DHT22;10066;48.108;11.448;2023-07-09T00:03:40;18.50;99.90
19813;DHT22;10066;48.108;11.448;2023-07-09T00:06:08;18.50;99.90
19813;DHT22;10066;48.108;11.448;2023-07-09T00:08:37;18.40;99.90
19813;DHT22;10066;48.108;11.448;2023-07-09T00:11:06;18.40;99.90
19813;DHT22;10066;48.108;11.448;2023-07-09T00:13:33;18.40;99.90
19813;DHT22;10066;48.108;11.448;2023-07-09T00:16:01;18.30;99.90
19813;DHT22;10066;48.108;11.448;2023-07-09T00:18:30;18.30;99.90
19813;DHT22;10066;48.108;11.448;2023-07-09T00:20:57;18.20;99.90
19813;DHT22;10066;48.108;11.448;2023-07-09T00:23:24;18.20;99.90
19813;DHT22;10066;48.108;11.448;2023-07-09T00:25:52;18.20;99.90
19813;DHT22;10066;48.108;11.448;2023-07-09T00:28:20;18.20;99.90
19813;DHT22;10066;48.108;11.448;2023-07-09T00:30:47;18.10;99.90
19813;DHT22;10066;48.108;11.448;2023-07-09T00:33:16;18.10;99.90
19813;DHT22;10066;48.108;11.448;2023-07-09T00:35:47;18.00;99.90
19813;DHT22;10066;48.108;11.448;2023-07-09T00:38:16;18.00;99.90
19813;DHT22;10066;48.108;11.448;2023-07-09T00:40:47;18.00;99.90
19813;DHT22;10066;48.108;11.448;2023-07-09T00:43:16;18.00;99.90
19813;DHT22;10066;48.108;11.448;2023-07-09T00:45:43;18.00;99.90
19813;DHT22;10066;48.108;11.448;2023-07-09T00:48:13;18.00;99.90
19813;DHT22;10066;48.108;11.448;2023-07-09T00:50:48;17.90;99.90
19813;DHT22;10066;48.108;11.448;2023-07-09T00:53:21;17.90;99.90
19813;DHT22;10066;48.108;11.448;2023-07-09T00:55:52;17.90;99.90
19813;DHT22;10066;48.108;11.448;2023-07-09T00:58:22;17.80;99.90
19813;DHT22;10066;48.108;11.448;2023-07-09T01:00:56;17.80;99.90
19813;DHT22;10066;48.108;11.448;2023-07-09T01:03:29;17.80;99.90
19813;DHT22;10066;48.108;11.448;2023-07-09T01:05:58;17.80;99.90
19813;DHT22;10066;48.108;11.448;2023-07-09T01:08:25;17.80;99.90
19813;DHT22;10066;48.108;11.448;2023-07-09T01:10:56;17.70;99.90
19813;DHT22;10066;48.108;11.448;2023-07-09T01:13:24;17.70;99.90
19813;DHT22;10066;48.108;11.448;2023-07-09T01:15:53;17.70;99.90
19813;DHT22;10066;48.108;11.448;2023-07-09T01:18:21;17.60;99.90
19813;DHT22;10066;48.108;11.448;2023-07-09T01:20:50;17.60;99.90
19813;DHT22;10066;48.108;11.448;2023-07-09T01:23:19;17.60;99.90
19813;DHT22;10066;48.108;11.448;2023-07-09T01:25:50;17.60;99.90
19813;DHT22;10066;48.108;11.448;2023-07-09T01:28:18;17.50;99.90
19813;DHT22;10066;48.108;11.448;2023-07-09T01:30:46;17.50;99.90
19813;DHT22;10066;48.108;11.448;2023-07-09T01:33:14;17.50;99.90
19813;DHT22;10066;48.108;11.448;2023-07-09T01:35:43;17.50;99.90
19813;DHT22;10066;48.108;11.448;2023-07-09T01:38:09;17.40;99.90
19813;DHT22;10066;48.108;11.448;2023-07-09T01:40:38;17.40;99.90
19813;DHT22;10066;48.108;11.448;2023-07-09T01:43:05;17.40;99.90
19813;DHT22;10066;48.108;11.448;2023-07-09T01:45:34;17.40;99.90
19813;DHT22;10066;48.108;11.448;2023-07-09T01:48:02;17.40;99.90
19813;DHT22;10066;48.108;11.448;2023-07-09T01:50:29;17.40;99.90
19813;DHT22;10066;48.108;11.448;2023-07-09T01:52:56;17.40;99.90
19813;DHT22;10066;48.108;11.448;2023-07-09T01:55:24;17.40;99.90
19813;DHT22;10066;48.108;11.448;2023-07-09T01:57:53;17.30;99.90
19813;DHT22;10066;48.108;11.448;2023-07-09T02:00:20;17.30;99.90
19813;DHT22;10066;48.108;11.448;2023-07-09T02:02:47;17.30;99.90
19813;DHT22;10066;48.108;11.448;2023-07-09T02:05:17;17.20;99.90
19813;DHT22;10066;48.108;11.448;2023-07-09T02:07:45;17.30;99.90
19813;DHT22;10066;48.108;11.448;2023-07-09T02:10:12;17.20;99.90
19813;DHT22;10066;48.108;11.448;2023-07-09T02:12:40;17.20;99.90
19813;DHT22;10066;48.108;11.448;2023-07-09T02:15:10;17.20;99.90
19813;DHT22;10066;48.108;11.448;2023-07-09T02:17:37;17.20;99.90
19813;DHT22;10066;48.108;11.448;2023-07-09T02:20:05;17.20;99.90
19813;DHT22;10066;48.108;11.448;2023-07-09T02:22:32;17.10;99.90
19813;DHT22;10066;48.108;11.448;2023-07-09T02:24:59;17.10;99.90
19813;DHT22;10066;48.108;11.448;2023-07-09T02:27:26;17.10;99.90
19813;DHT22;10066;48.108;11.448;2023-07-09T02:29:54;17.10;99.90
19813;DHT22;10066;48.108;11.448;2023-07-09T02:32:24;17.10;99.90
19813;DHT22;10066;48.108;11.448;2023-07-09T02:34:52;17.10;99.90
19813;DHT22;10066;48.108;11.448;2023-07-09T02:37:21;17.00;99.90
19813;DHT22;10066;48.108;11.448;2023-07-09T02:39:49;17.00;99.90
19813;DHT22;10066;48.108;11.448;2023-07-09T02:42:18;17.00;99.90
19813;DHT22;10066;48.108;11.448;2023-07-09T02:44:47;17.00;99.90
19813;DHT22;10066;48.108;11.448;2023-07-09T02:47:14;17.00;99.90
19813;DHT22;10066;48.108;11.448;2023-07-09T02:49:42;17.00;99.90
19813;DHT22;10066;48.108;11.448;2023-07-09T02:52:09;17.00;99.90
19813;DHT22;10066;48.108;11.448;2023-07-09T02:54:36;17.00;99.90
19813;DHT22;10066;48.108;11.448;2023-07-09T02:57:04;17.00;99.90
19813;DHT22;10066;48.108;11.448;2023-07-09T02:59:31;16.90;99.90
19813;DHT22;10066;48.108;11.448;2023-07-09T03:01:59;16.90;99.90
19813;DHT22;10066;48.108;11.448;2023-07-09T03:04:26;16.90;99.90
19813;DHT22;10066;48.108;11.448;2023-07-09T03:06:55;16.90;99.90
19813;DHT22;10066;48.108;11.448;2023-07-09T03:09:22;16.90;99.90
19813;DHT22;10066;48.108;11.448;2023-07-09T03:11:49;17.00;99.90
19813;DHT22;10066;48.108;11.448;2023-07-09T03:14:16;16.90;99.90
19813;DHT22;10066;48.108;11.448;2023-07-09T03:16:44;16.90;99.90
19813;DHT22;10066;48.108;11.448;2023-07-09T03:19:12;17.00;99.90
19813;DHT22;10066;48.108;11.448;2023-07-09T03:21:39;16.90;99.90
19813;DHT22;10066;48.108;11.448;2023-07-09T03:24:09;17.00;99.90
19813;DHT22;10066;48.108;11.448;2023-07-09T03:26:36;16.90;99.90
19813;DHT22;10066;48.108;11.448;2023-07-09T03:29:02;16.90;99.90
19813;DHT22;10066;48.108;11.448;2023-07-09T03:31:30;16.90;99.90
19813;DHT22;10066;48.108;11.448;2023-07-09T03:34:00;16.90;99.90
19813;DHT22;10066;48.108;11.448;2023-07-09T03:36:27;16.90;99.90
19813;DHT22;10066;48.108;11.448;2023-07-09T03:38:54;17.00;99.90
19813;DHT22;10066;48.108;11.448;2023-07-09T03:41:23;16.90;99.90
19813;DHT22;10066;48.108;11.448;2023-07-09T03:43:49;17.00;99.90
19813;DHT22;10066;48.108;11.448;2023-07-09T03:46:18;17.00;99.90
19813;DHT22;10066;48.108;11.448;2023-07-09T03:48:45;17.00;99.90
19813;DHT22;10066;48.108;11.448;2023-07-09T03:51:12;17.10;99.90
19813;DHT22;10066;48.108;11.448;2023-07-09T03:53:39;17.10;99.90
19813;DHT22;10066;48.108;11.448;2023-07-09T03:56:07;17.10;99.90
19813;DHT22;10066;48.108;11.448;2023-07-09T03:58:36;17.20;99.90
19813;DHT22;10066;48.108;11.448;2023-07-09T04:01:03;17.20;99.90
19813;DHT22;10066;48.108;11.448;2023-07-09T04:03:30;17.20;99.90
19813;DHT22;10066;48.108;11.448;2023-07-09T04:05:57;17.30;99.90
19813;DHT22;10066;48.108;11.448;2023-07-09T04:08:24;17.30;99.90
19813;DHT22;10066;48.108;11.448;2023-07-09T04:10:53;17.40;99.90
19813;DHT22;10066;48.108;11.448;2023-07-09T04:13:20;17.40;99.90
19813;DHT22;10066;48.108;11.448;2023-07-09T04:15:54;17.50;99.90
19813;DHT22;10066;48.108;11.448;2023-07-09T04:18:21;18.00;99.90
19813;DHT22;10066;48.108;11.448;2023-07-09T04:20:48;18.60;99.90
19813;DHT22;10066;48.108;11.448;2023-07-09T04:23:16;19.20;99.90
19813;DHT22;10066;48.108;11.448;2023-07-09T04:25:43;19.70;99.90
19813;DHT22;10066;48.108;11.448;2023-07-09T04:28:10;20.20;99.90
19813;DHT22;10066;48.108;11.448;2023-07-09T04:33:06;20.50;99.90
19813;DHT22;10066;48.108;11.448;2023-07-09T04:35:35;20.80;99.90
19813;DHT22;10066;48.108;11.448;2023-07-09T04:38:02;20.90;99.90
19813;DHT22;10066;48.108;11.448;2023-07-09T04:40:29;21.10;99.90
19813;DHT22;10066;48.108;11.448;2023-07-09T04:42:56;21.20;99.90
19813;DHT22;10066;48.108;11.448;2023-07-09T04:45:23;21.40;99.90
19813;DHT22;10066;48.108;11.448;2023-07-09T04:47:50;21.80;99.90
19813;DHT22;10066;48.108;11.448;2023-07-09T04:50:19;22.30;99.90
19813;DHT22;10066;48.108;11.448;2023-07-09T04:52:46;22.80;99.90
19813;DHT22;10066;48.108;11.448;2023-07-09T04:55:13;23.10;99.90
19813;DHT22;10066;48.108;11.448;2023-07-09T04:57:40;23.10;99.90
19813;DHT22;10066;48.108;11.448;2023-07-09T05:00:08;23.30;99.90
19813;DHT22;10066;48.108;11.448;2023-07-09T05:02:35;23.60;99.90
19813;DHT22;10066;48.108;11.448;2023-07-09T05:05:02;23.80;99.90
19813;DHT22;10066;48.108;11.448;2023-07-09T05:07:32;24.20;99.90
19813;DHT22;10066;48.108;11.448;2023-07-09T05:09:59;24.40;99.90
19813;DHT22;10066;48.108;11.448;2023-07-09T05:12:27;24.50;99.90
19813;DHT22;10066;48.108;11.448;2023-07-09T05:14:54;24.20;99.90
19813;DHT22;10066;48.108;11.448;2023-07-09T05:17:22;24.00;99.90
19813;DHT22;10066;48.108;11.448;2023-07-09T05:19:49;23.60;99.90
19813;DHT22;10066;48.108;11.448;2023-07-09T05:22:16;23.40;99.90
19813;DHT22;10066;48.108;11.448;2023-07-09T05:24:44;23.40;99.90
19813;DHT22;10066;48.108;11.448;2023-07-09T05:27:11;23.30;99.90
19813;DHT22;10066;48.108;11.448;2023-07-09T05:29:38;23.20;99.90
19813;DHT22;10066;48.108;11.448;2023-07-09T05:32:05;23.10;99.90
19813;DHT22;10066;48.108;11.448;2023-07-09T05:34:32;23.10;99.90
19813;DHT22;10066;48.108;11.448;2023-07-09T05:36:59;23.10;99.90
19813;DHT22;10066;48.108;11.448;2023-07-09T05:39:26;23.00;99.90
19813;DHT22;10066;48.108;11.448;2023-07-09T05:41:54;23.00;99.90
19813;DHT22;10066;48.108;11.448;2023-07-09T05:44:22;22.90;99.90
19813;DHT22;10066;48.108;11.448;2023-07-09T05:46:49;22.90;99.90
19813;DHT22;10066;48.108;11.448;2023-07-09T05:49:16;22.90;99.90
19813;DHT22;10066;48.108;11.448;2023-07-09T05:51:43;22.90;99.90
19813;DHT22;10066;48.108;11.448;2023-07-09T05:54:10;23.00;99.90
19813;DHT22;10066;48.108;11.448;2023-07-09T05:56:37;23.10;99.90
19813;DHT22;10066;48.108;11.448;2023-07-09T05:59:05;23.10;99.90
19813;DHT22;10066;48.108;11.448;2023-07-09T06:01:32;23.20;99.90
19813;DHT22;10066;48.108;11.448;2023-07-09T06:04:00;23.30;99.90
19813;DHT22;10066;48.108;11.448;2023-07-09T06:06:27;23.30;99.90
19813;DHT22;10066;48.108;11.448;2023-07-09T06:08:54;23.40;99.90
19813;DHT22;10066;48.108;11.448;2023-07-09T06:11:21;23.40;99.90
19813;DHT22;10066;48.108;11.448;2023-07-09T06:13:49;23.50;99.90
19813;DHT22;10066;48.108;11.448;2023-07-09T06:16:19;23.60;99.90
19813;DHT22;10066;48.108;11.448;2023-07-09T06:18:46;23.60;99.90
19813;DHT22;10066;48.108;11.448;2023-07-09T06:21:13;23.70;99.90
19813;DHT22;10066;48.108;11.448;2023-07-09T06:23:40;23.80;99.90
19813;DHT22;10066;48.108;11.448;2023-07-09T06:26:07;24.20;99.90
19813;DHT22;10066;48.108;11.448;2023-07-09T06:28:34;25.70;99.90
19813;DHT22;10066;48.108;11.448;2023-07-09T06:31:01;27.20;99.90
19813;DHT22;10066;48.108;11.448;2023-07-09T06:33:29;30.10;99.90
19813;DHT22;10066;48.108;11.448;2023-07-09T06:35:58;29.80;99.90
19813;DHT22;10066;48.108;11.448;2023-07-09T06:38:25;31.00;95.50
19813;DHT22;10066;48.108;11.448;2023-07-09T06:40:52;31.90;92.90
19813;DHT22;10066;48.108;11.448;2023-07-09T06:43:19;32.60;90.90
19813;DHT22;10066;48.108;11.448;2023-07-09T06:45:52;33.20;86.20
19813;DHT22;10066;48.108;11.448;2023-07-09T06:48:19;33.40;83.00
19813;DHT22;10066;48.108;11.448;2023-07-09T06:50:48;34.00;80.30
19813;DHT22;10066;48.108;11.448;2023-07-09T06:53:16;34.50;76.50
19813;DHT22;10066;48.108;11.448;2023-07-09T06:55:42;35.00;74.80
19813;DHT22;10066;48.108;11.448;2023-07-09T06:58:09;35.50;72.90
19813;DHT22;10066;48.108;11.448;2023-07-09T07:00:37;35.90;70.20
19813;DHT22;10066;48.108;11.448;2023-07-09T07:03:05;36.20;69.40
19813;DHT22;10066;48.108;11.448;2023-07-09T07:05:32;36.40;68.20
19813;DHT22;10066;48.108;11.448;2023-07-09T07:10:28;36.60;63.30
19813;DHT22;10066;48.108;11.448;2023-07-09T07:12:55;36.40;62.30
19813;DHT22;10066;48.108;11.448;2023-07-09T07:15:22;35.50;61.80
19813;DHT22;10066;48.108;11.448;2023-07-09T07:17:50;34.40;62.60
19813;DHT22;10066;48.108;11.448;2023-07-09T07:20:18;33.30;64.20
19813;DHT22;10066;48.108;11.448;2023-07-09T07:22:45;32.50;66.40
19813;DHT22;10066;48.108;11.448;2023-07-09T07:25:13;31.80;66.50
19813;DHT22;10066;48.108;11.448;2023-07-09T07:27:40;31.20;68.20
19813;DHT22;10066;48.108;11.448;2023-07-09T07:30:08;30.70;69.50
19813;DHT22;10066;48.108;11.448;2023-07-09T07:32:37;30.40;70.30
19813;DHT22;10066;48.108;11.448;2023-07-09T07:35:05;30.00;70.50
19813;DHT22;10066;48.108;11.448;2023-07-09T07:37:32;29.70;72.10
19813;DHT22;10066;48.108;11.448;2023-07-09T07:39:59;29.40;73.40
19813;DHT22;10066;48.108;11.448;2023-07-09T07:42:27;29.10;74.90
19813;DHT22;10066;48.108;11.448;2023-07-09T07:44:54;29.00;74.80
19813;DHT22;10066;48.108;11.448;2023-07-09T07:47:21;28.90;74.50
19813;DHT22;10066;48.108;11.448;2023-07-09T07:49:48;28.80;74.60
19813;DHT22;10066;48.108;11.448;2023-07-09T07:52:15;28.80;76.40
19813;DHT22;10066;48.108;11.448;2023-07-09T07:54:41;28.70;76.10
19813;DHT22;10066;48.108;11.448;2023-07-09T07:57:08;28.70;76.10
19813;DHT22;10066;48.108;11.448;2023-07-09T07:59:38;28.70;75.60
19813;DHT22;10066;48.108;11.448;2023-07-09T08:02:07;28.70;74.80
19813;DHT22;10066;48.108;11.448;2023-07-09T08:04:37;28.80;75.20
19813;DHT22;10066;48.108;11.448;2023-07-09T08:07:06;28.80;75.00
19813;DHT22;10066;48.108;11.448;2023-07-09T08:09:33;28.80;75.10
19813;DHT22;10066;48.108;11.448;2023-07-09T08:12:01;28.80;76.10
19813;DHT22;10066;48.108;11.448;2023-07-09T08:14:34;28.90;76.00
19813;DHT22;10066;48.108;11.448;2023-07-09T08:17:02;28.90;75.20
19813;DHT22;10066;48.108;11.448;2023-07-09T08:19:30;29.00;74.70
19813;DHT22;10066;48.108;11.448;2023-07-09T08:21:56;29.00;73.80
19813;DHT22;10066;48.108;11.448;2023-07-09T08:24:23;29.00;73.70
19813;DHT22;10066;48.108;11.448;2023-07-09T08:26:50;29.10;74.20
19813;DHT22;10066;48.108;11.448;2023-07-09T08:29:17;29.10;73.20
19813;DHT22;10066;48.108;11.448;2023-07-09T08:31:44;29.20;72.30
19813;DHT22;10066;48.108;11.448;2023-07-09T08:34:13;29.20;72.10
19813;DHT22;10066;48.108;11.448;2023-07-09T08:36:39;29.30;73.10
19813;DHT22;10066;48.108;11.448;2023-07-09T08:39:06;29.30;72.50
19813;DHT22;10066;48.108;11.448;2023-07-09T08:41:39;29.40;72.70
19813;DHT22;10066;48.108;11.448;2023-07-09T08:44:31;29.40;73.50
19813;DHT22;10066;48.108;11.448;2023-07-09T08:47:06;29.60;73.20
19813;DHT22;10066;48.108;11.448;2023-07-09T08:49:40;29.60;72.20
19813;DHT22;10066;48.108;11.448;2023-07-09T08:52:13;29.70;68.80
19813;DHT22;10066;48.108;11.448;2023-07-09T08:54:42;29.70;68.90
19813;DHT22;10066;48.108;11.448;2023-07-09T08:57:19;29.80;67.30
19813;DHT22;10066;48.108;11.448;2023-07-09T08:59:48;29.80;66.20
19813;DHT22;10066;48.108;11.448;2023-07-09T09:02:27;29.70;65.70
19813;DHT22;10066;48.108;11.448;2023-07-09T09:04:58;29.70;65.10
19813;DHT22;10066;48.108;11.448;2023-07-09T09:07:33;29.60;65.30
19813;DHT22;10066;48.108;11.448;2023-07-09T09:10:03;29.70;66.30
19813;DHT22;10066;48.108;11.448;2023-07-09T09:12:35;29.80;66.30
19813;DHT22;10066;48.108;11.448;2023-07-09T09:15:08;29.90;67.20
19813;DHT22;10066;48.108;11.448;2023-07-09T09:17:39;30.00;66.60
19813;DHT22;10066;48.108;11.448;2023-07-09T09:20:10;30.00;66.90
19813;DHT22;10066;48.108;11.448;2023-07-09T09:22:43;30.20;65.60
19813;DHT22;10066;48.108;11.448;2023-07-09T09:25:19;30.20;64.90
19813;DHT22;10066;48.108;11.448;2023-07-09T09:27:48;30.30;64.30
19813;DHT22;10066;48.108;11.448;2023-07-09T09:30:16;30.30;65.10
19813;DHT22;10066;48.108;11.448;2023-07-09T09:32:45;30.30;65.00
19813;DHT22;10066;48.108;11.448;2023-07-09T09:35:17;30.30;65.40
19813;DHT22;10066;48.108;11.448;2023-07-09T09:37:51;30.30;64.70
19813;DHT22;10066;48.108;11.448;2023-07-09T09:40:19;30.40;63.70
19813;DHT22;10066;48.108;11.448;2023-07-09T09:42:48;30.40;64.00
19813;DHT22;10066;48.108;11.448;2023-07-09T09:45:17;30.50;62.90
19813;DHT22;10066;48.108;11.448;2023-07-09T09:47:44;30.60;62.40
19813;DHT22;10066;48.108;11.448;2023-07-09T09:50:15;30.60;62.00
19813;DHT22;10066;48.108;11.448;2023-07-09T09:52:43;30.60;62.90
19813;DHT22;10066;48.108;11.448;2023-07-09T09:55:15;30.70;62.10
19813;DHT22;10066;48.108;11.448;2023-07-09T09:57:47;30.80;61.90
19813;DHT22;10066;48.108;11.448;2023-07-09T10:00:16;30.90;61.40
19813;DHT22;10066;48.108;11.448;2023-07-09T10:02:43;30.90;61.10
19813;DHT22;10066;48.108;11.448;2023-07-09T10:05:12;30.90;60.90
19813;DHT22;10066;48.108;11.448;2023-07-09T10:07:44;31.00;61.00
19813;DHT22;10066;48.108;11.448;2023-07-09T10:10:15;31.00;61.00
19813;DHT22;10066;48.108;11.448;2023-07-09T10:12:49;31.10;61.10
19813;DHT22;10066;48.108;11.448;2023-07-09T10:15:25;31.10;60.30
19813;DHT22;10066;48.108;11.448;2023-07-09T10:18:00;31.10;60.10
19813;DHT22;10066;48.108;11.448;2023-07-09T10:20:34;31.00;59.40
19813;DHT22;10066;48.108;11.448;2023-07-09T10:23:17;31.00;59.10
19813;DHT22;10066;48.108;11.448;2023-07-09T10:25:52;30.90;58.50
19813;DHT22;10066;48.108;11.448;2023-07-09T10:29:00;30.80;59.20
19813;DHT22;10066;48.108;11.448;2023-07-09T10:31:38;30.60;58.30
19813;DHT22;10066;48.108;11.448;2023-07-09T10:34:17;30.40;58.60
19813;DHT22;10066;48.108;11.448;2023-07-09T10:37:04;30.30;58.40
19813;DHT22;10066;48.108;11.448;2023-07-09T10:39:42;30.10;59.20
19813;DHT22;10066;48.108;11.448;2023-07-09T10:42:17;30.00;59.90
19813;DHT22;10066;48.108;11.448;2023-07-09T10:44:54;29.90;60.20
19813;DHT22;10066;48.108;11.448;2023-07-09T10:47:27;29.70;61.10
19813;DHT22;10066;48.108;11.448;2023-07-09T10:49:59;29.70;61.40
19813;DHT22;10066;48.108;11.448;2023-07-09T10:52:32;29.60;62.20
19813;DHT22;10066;48.108;11.448;2023-07-09T10:55:05;29.60;61.60
19813;DHT22;10066;48.108;11.448;2023-07-09T10:57:43;29.70;61.90
19813;DHT22;10066;48.108;11.448;2023-07-09T11:00:17;29.80;62.30
19813;DHT22;10066;48.108;11.448;2023-07-09T11:02:49;30.00;61.70
19813;DHT22;10066;48.108;11.448;2023-07-09T11:05:18;30.20;61.30
19813;DHT22;10066;48.108;11.448;2023-07-09T11:07:52;30.40;61.10
19813;DHT22;10066;48.108;11.448;2023-07-09T11:10:30;30.60;61.20
19813;DHT22;10066;48.108;11.448;2023-07-09T11:13:00;30.70;59.90
19813;DHT22;10066;48.108;11.448;2023-07-09T11:15:30;30.90;59.60
19813;DHT22;10066;48.108;11.448;2023-07-09T11:17:58;30.90;58.50
19813;DHT22;10066;48.108;11.448;2023-07-09T11:20:31;31.00;59.10
19813;DHT22;10066;48.108;11.448;2023-07-09T11:23:02;31.10;58.90
19813;DHT22;10066;48.108;11.448;2023-07-09T11:25:41;31.20;59.20
19813;DHT22;10066;48.108;11.448;2023-07-09T11:28:08;31.30;58.80
19813;DHT22;10066;48.108;11.448;2023-07-09T11:30:49;31.40;58.50
19813;DHT22;10066;48.108;11.448;2023-07-09T11:33:19;31.50;58.60
19813;DHT22;10066;48.108;11.448;2023-07-09T11:35:48;31.60;58.40
19813;DHT22;10066;48.108;11.448;2023-07-09T11:38:18;31.50;57.40
19813;DHT22;10066;48.108;11.448;2023-07-09T11:40:51;31.50;56.80
19813;DHT22;10066;48.108;11.448;2023-07-09T11:43:31;31.40;56.70
19813;DHT22;10066;48.108;11.448;2023-07-09T11:46:19;31.40;56.60
19813;DHT22;10066;48.108;11.448;2023-07-09T11:48:49;31.40;56.80
19813;DHT22;10066;48.108;11.448;2023-07-09T11:51:25;31.50;57.60
19813;DHT22;10066;48.108;11.448;2023-07-09T11:53:56;31.50;58.40
19813;DHT22;10066;48.108;11.448;2023-07-09T11:56:26;31.70;58.80
19813;DHT22;10066;48.108;11.448;2023-07-09T11:58:55;31.80;57.70
19813;DHT22;10066;48.108;11.448;2023-07-09T12:01:24;31.90;58.20
19813;DHT22;10066;48.108;11.448;2023-07-09T12:03:53;31.80;57.40
19813;DHT22;10066;48.108;11.448;2023-07-09T12:06:24;31.80;57.70
19813;DHT22;10066;48.108;11.448;2023-07-09T12:08:53;31.80;57.80
19813;DHT22;10066;48.108;11.448;2023-07-09T12:11:23;31.80;57.90
19813;DHT22;10066;48.108;11.448;2023-07-09T12:13:52;31.90;57.20
19813;DHT22;10066;48.108;11.448;2023-07-09T12:16:21;31.90;56.00
19813;DHT22;10066;48.108;11.448;2023-07-09T12:18:48;31.90;56.10
19813;DHT22;10066;48.108;11.448;2023-07-09T12:21:15;31.90;56.80
19813;DHT22;10066;48.108;11.448;2023-07-09T12:23:42;32.00;55.70
19813;DHT22;10066;48.108;11.448;2023-07-09T12:26:13;32.00;55.90
19813;DHT22;10066;48.108;11.448;2023-07-09T12:28:40;32.10;55.50
19813;DHT22;10066;48.108;11.448;2023-07-09T12:31:13;32.20;55.50
19813;DHT22;10066;48.108;11.448;2023-07-09T12:33:47;32.30;56.30
19813;DHT22;10066;48.108;11.448;2023-07-09T12:36:14;32.40;56.90
19813;DHT22;10066;48.108;11.448;2023-07-09T12:38:44;32.50;56.60
19813;DHT22;10066;48.108;11.448;2023-07-09T12:41:19;32.60;55.90
19813;DHT22;10066;48.108;11.448;2023-07-09T12:43:47;32.70;55.80
19813;DHT22;10066;48.108;11.448;2023-07-09T12:46:16;32.80;55.70
19813;DHT22;10066;48.108;11.448;2023-07-09T12:48:45;32.80;55.10
19813;DHT22;10066;48.108;11.448;2023-07-09T12:51:15;32.90;55.00
19813;DHT22;10066;48.108;11.448;2023-07-09T12:53:43;32.90;55.00
19813;DHT22;10066;48.108;11.448;2023-07-09T12:56:12;33.00;54.20
19813;DHT22;10066;48.108;11.448;2023-07-09T12:58:40;32.90;54.20
19813;DHT22;10066;48.108;11.448;2023-07-09T13:01:12;33.00;54.50
19813;DHT22;10066;48.108;11.448;2023-07-09T13:03:41;33.00;54.20
19813;DHT22;10066;48.108;11.448;2023-07-09T13:06:27;33.00;53.90
19813;DHT22;10066;48.108;11.448;2023-07-09T13:08:56;33.00;52.20
19813;DHT22;10066;48.108;11.448;2023-07-09T13:11:25;33.00;52.90
19813;DHT22;10066;48.108;11.448;2023-07-09T13:13:56;33.10;52.80
19813;DHT22;10066;48.108;11.448;2023-07-09T13:16:23;33.00;51.50
19813;DHT22;10066;48.108;11.448;2023-07-09T13:18:51;32.90;51.60
19813;DHT22;10066;48.108;11.448;2023-07-09T13:21:20;32.80;52.50
19813;DHT22;10066;48.108;11.448;2023-07-09T13:23:47;32.60;52.60
19813;DHT22;10066;48.108;11.448;2023-07-09T13:26:14;32.50;52.90
19813;DHT22;10066;48.108;11.448;2023-07-09T13:28:43;32.40;51.80
19813;DHT22;10066;48.108;11.448;2023-07-09T13:31:13;32.20;52.70
19813;DHT22;10066;48.108;11.448;2023-07-09T13:33:41;32.10;52.60
19813;DHT22;10066;48.108;11.448;2023-07-09T13:36:10;32.00;53.20
19813;DHT22;10066;48.108;11.448;2023-07-09T13:38:37;32.10;53.10
19813;DHT22;10066;48.108;11.448;2023-07-09T13:41:11;32.10;53.00
19813;DHT22;10066;48.108;11.448;2023-07-09T13:43:39;32.20;52.90
19813;DHT22;10066;48.108;11.448;2023-07-09T13:46:07;32.30;52.70
19813;DHT22;10066;48.108;11.448;2023-07-09T13:48:36;32.30;52.80
19813;DHT22;10066;48.108;11.448;2023-07-09T13:51:14;32.30;53.00
19813;DHT22;10066;48.108;11.448;2023-07-09T13:53:42;32.30;52.40
19813;DHT22;10066;48.108;11.448;2023-07-09T13:56:09;32.20;52.90
19813;DHT22;10066;48.108;11.448;2023-07-09T13:58:35;32.20;53.10
19813;DHT22;10066;48.108;11.448;2023-07-09T14:01:10;32.10;52.70
19813;DHT22;10066;48.108;11.448;2023-07-09T14:03:38;32.10;52.60
19813;DHT22;10066;48.108;11.448;2023-07-09T14:06:05;32.10;52.90
19813;DHT22;10066;48.108;11.448;2023-07-09T14:08:36;32.20;52.40
19813;DHT22;10066;48.108;11.448;2023-07-09T14:11:09;32.20;52.40
19813;DHT22;10066;48.108;11.448;2023-07-09T14:13:36;32.10;51.80
19813;DHT22;10066;48.108;11.448;2023-07-09T14:16:04;32.20;51.70
19813;DHT22;10066;48.108;11.448;2023-07-09T14:18:31;32.20;51.90
19813;DHT22;10066;48.108;11.448;2023-07-09T14:20:58;32.10;51.80
19813;DHT22;10066;48.108;11.448;2023-07-09T14:23:25;32.10;52.10
19813;DHT22;10066;48.108;11.448;2023-07-09T14:25:54;32.10;51.80
19813;DHT22;10066;48.108;11.448;2023-07-09T14:28:21;32.20;52.40
19813;DHT22;10066;48.108;11.448;2023-07-09T14:30:49;32.30;52.00
19813;DHT22;10066;48.108;11.448;2023-07-09T14:33:18;32.30;52.00
19813;DHT22;10066;48.108;11.448;2023-07-09T14:35:46;32.30;52.20
19813;DHT22;10066;48.108;11.448;2023-07-09T14:38:17;32.30;51.90
19813;DHT22;10066;48.108;11.448;2023-07-09T14:40:45;32.20;51.60
19813;DHT22;10066;48.108;11.448;2023-07-09T14:43:14;32.00;51.80
19813;DHT22;10066;48.108;11.448;2023-07-09T14:45:41;31.90;52.40
19813;DHT22;10066;48.108;11.448;2023-07-09T14:48:10;31.80;52.10
19813;DHT22;10066;48.108;11.448;2023-07-09T14:50:38;31.70;52.00
19813;DHT22;10066;48.108;11.448;2023-07-09T14:53:13;31.70;52.40
19813;DHT22;10066;48.108;11.448;2023-07-09T14:55:41;31.70;52.60
19813;DHT22;10066;48.108;11.448;2023-07-09T14:58:16;31.80;53.00
19813;DHT22;10066;48.108;11.448;2023-07-09T15:00:43;31.80;53.30
19813;DHT22;10066;48.108;11.448;2023-07-09T15:03:13;31.90;52.70
19813;DHT22;10066;48.108;11.448;2023-07-09T15:05:41;31.90;52.70
19813;DHT22;10066;48.108;11.448;2023-07-09T15:08:12;31.90;52.40
19813;DHT22;10066;48.108;11.448;2023-07-09T15:10:40;31.90;53.20
19813;DHT22;10066;48.108;11.448;2023-07-09T15:13:16;31.90;52.40
19813;DHT22;10066;48.108;11.448;2023-07-09T15:15:44;31.90;52.40
19813;DHT22;10066;48.108;11.448;2023-07-09T15:18:13;31.90;53.20
19813;DHT22;10066;48.108;11.448;2023-07-09T15:20:43;31.80;52.70
19813;DHT22;10066;48.108;11.448;2023-07-09T15:23:12;31.80;53.30
19813;DHT22;10066;48.108;11.448;2023-07-09T15:25:39;31.80;53.70
19813;DHT22;10066;48.108;11.448;2023-07-09T15:28:09;31.80;52.60
19813;DHT22;10066;48.108;11.448;2023-07-09T15:30:37;31.80;52.80
19813;DHT22;10066;48.108;11.448;2023-07-09T15:33:05;31.80;53.30